South Britain, Connecticut
Current Conditions -  °F | °C
As of 10:48 AM on Thursday 30 Oct 2014 (Local Time) from KOXC Reporting Station
Broken Clouds Broken Clouds  
Wind Chill: 52°   Ceiling: 7500
Heat Index: 52°   Visibility: 10mi
Dew Point: 37°   Wind: 9mph
Humidity: 58%   Direction: 330°NNW
Pressure: 29.98"   Gusts: NA
Location:  41.47°N, 73.25°W
Report Text: KOXC 301448Z 33008KT 10SM BKN075 11/03 A2998
Loading
Personal Weather Stations






























Interactive Weather Map
Tropical Storm Tracking
New forecast layout! Learn more

10-Day Weather Forecast

Advertisements
Track Severe Weather on mobile